Time;durP1;ratioP1;P1;durP2;ratioP2;P2;SDS_P1;SDS_P2;PMS_P1;PMS_P2;Temp;Humidity;BMP_temperature;BMP_pressure;BME280_temperature;BME280_humidity;BME280_pressure;Samples;Min_cycle;Max_cycle;Signal;HPM_P1;HPM_P2
2022/07/15 00:02:07;;;;;;;7.93;4.35;;;;;;;21.02;54.78;95753.44;5011169;28;20069;-77
2022/07/15 00:04:33;;;;;;;6.57;4.10;;;;;;;20.88;54.76;95749.19;5011237;28;20037;-78
2022/07/15 00:06:59;;;;;;;6.30;4.32;;;;;;;20.98;54.78;95757.91;5025664;28;20463;-77
2022/07/15 00:10:13;;;;;;;6.82;4.60;;;;;;;20.97;54.63;95745.66;5008056;28;20040;-77
2022/07/15 00:12:11;;;;;;;8.32;4.43;;;;;;;20.78;57.21;95733.53;5010343;28;20157;-78
2022/07/15 00:14:37;;;;;;;8.70;4.82;;;;;;;20.68;61.10;95733.97;5026993;28;20407;-77
2022/07/15 00:17:04;;;;;;;7.05;4.57;;;;;;;20.74;59.46;95749.44;5011474;28;20046;-77
2022/07/15 00:19:30;;;;;;;8.20;4.80;;;;;;;20.74;58.30;95743.34;5010330;28;20526;-78
2022/07/15 00:21:56;;;;;;;7.93;4.68;;;;;;;20.75;58.75;95726.19;5019825;28;20056;-77
2022/07/15 00:24:23;;;;;;;8.73;4.35;;;;;;;20.73;58.85;95721.16;5004526;28;20038;-78
2022/07/15 00:26:49;;;;;;;8.32;4.43;;;;;;;20.75;57.72;95739.56;5023328;28;20041;-78
2022/07/15 00:29:14;;;;;;;17.65;5.38;;;;;;;20.64;57.68;95738.38;5035412;28;20097;-78
2022/07/15 00:31:40;;;;;;;12.77;5.45;;;;;;;20.66;56.74;95741.47;5035767;28;20041;-78
2022/07/15 00:34:05;;;;;;;7.78;4.85;;;;;;;20.52;56.86;95731.84;5027343;28;20041;-79
2022/07/15 00:36:31;;;;;;;7.97;5.10;;;;;;;20.55;56.72;95747.25;5036057;28;20046;-78
2022/07/15 00:38:57;;;;;;;6.60;4.50;;;;;;;20.55;57.83;95752.59;5030776;28;20042;-77
2022/07/15 00:41:23;;;;;;;43.30;11.52;;;;;;;20.01;78.88;95728.47;5037800;28;20053;-79
2022/07/15 00:43:48;;;;;;;19.95;6.93;;;;;;;19.77;91.94;95729.06;5038177;28;20090;-79
2022/07/15 00:46:18;;;;;;;13.07;6.40;;;;;;;19.31;85.01;95739.47;5037864;28;20085;-80
2022/07/15 00:48:44;;;;;;;13.38;5.93;;;;;;;18.93;94.33;95729.53;5053248;28;20022;-80
2022/07/15 00:51:10;;;;;;;12.18;6.25;;;;;;;18.63;100.00;95737.41;5038028;28;20133;-79
2022/07/15 00:53:37;;;;;;;14.27;6.75;;;;;;;18.52;100.00;95729.72;5053998;28;20046;-80
2022/07/15 00:56:04;;;;;;;12.48;7.05;;;;;;;18.21;100.00;95734.44;5037621;28;20034;-80
2022/07/15 00:58:32;;;;;;;16.30;7.88;;;;;;;17.80;100.00;95763.78;5037038;28;20034;-80
2022/07/15 01:00:58;;;;;;;14.25;6.80;;;;;;;17.69;100.00;95759.84;5038022;28;20021;-81
2022/07/15 01:03:27;;;;;;;20.42;8.52;;;;;;;17.89;100.00;95747.06;5038454;28;20028;-80
2022/07/15 01:05:54;;;;;;;18.45;8.85;;;;;;;17.82;100.00;95748.28;5038460;28;20035;-81
2022/07/15 01:08:19;;;;;;;15.38;8.88;;;;;;;17.76;100.00;95738.88;5038663;28;20034;-81
2022/07/15 01:10:50;;;;;;;15.35;8.43;;;;;;;17.78;100.00;95747.31;5036626;28;20033;-81
2022/07/15 01:13:16;;;;;;;15.55;9.00;;;;;;;17.93;100.00;95748.00;5019091;28;20033;-82
2022/07/15 01:15:41;;;;;;;17.85;9.13;;;;;;;17.88;100.00;95740.16;5033813;28;20037;-81
2022/07/15 01:18:07;;;;;;;17.10;8.70;;;;;;;17.70;100.00;95739.31;5022769;28;20077;-80
2022/07/15 01:20:32;;;;;;;16.38;9.43;;;;;;;17.80;100.00;95745.16;5034846;28;20060;-80
2022/07/15 01:23:01;;;;;;;17.33;9.90;;;;;;;17.64;100.00;95757.31;5019160;28;20030;-80
2022/07/15 01:25:28;;;;;;;13.90;10.32;;;;;;;17.67;100.00;95754.81;5036131;28;20056;-79
2022/07/15 01:27:53;;;;;;;20.08;11.13;;;;;;;17.69;100.00;95759.06;5029991;28;20038;-78
2022/07/15 01:30:19;;;;;;;23.67;11.95;;;;;;;17.58;100.00;95758.53;5026662;28;20092;-78
2022/07/15 01:32:44;;;;;;;27.05;12.18;;;;;;;17.53;100.00;95788.75;5009632;28;20076;-78
2022/07/15 01:35:10;;;;;;;28.67;12.45;;;;;;;17.48;100.00;95787.00;5026363;28;20488;-78
2022/07/15 01:37:35;;;;;;;22.00;12.55;;;;;;;17.44;100.00;95763.97;5007409;28;20077;-78
2022/07/15 01:40:01;;;;;;;28.48;13.95;;;;;;;17.43;100.00;95757.88;5005877;28;20073;-78
2022/07/15 01:42:26;;;;;;;31.98;14.50;;;;;;;17.38;100.00;95765.97;5009914;28;20034;-78
2022/07/15 01:44:52;;;;;;;26.27;13.45;;;;;;;17.36;100.00;95762.84;5011898;28;20517;-78
2022/07/15 01:47:17;;;;;;;24.42;11.52;;;;;;;17.21;100.00;95749.94;5027547;28;20053;-79
2022/07/15 01:49:43;;;;;;;19.30;10.90;;;;;;;17.14;100.00;95745.84;5005487;28;20038;-79
2022/07/15 01:52:09;;;;;;;22.58;11.13;;;;;;;17.10;100.00;95744.09;5011962;28;20117;-79
2022/07/15 01:54:36;;;;;;;18.13;9.32;;;;;;;17.04;100.00;95759.41;5009468;28;20033;-78
2022/07/15 01:57:01;;;;;;;12.20;9.02;;;;;;;16.94;100.00;95757.00;5025270;28;20042;-79
2022/07/15 01:59:27;;;;;;;17.38;9.60;;;;;;;17.01;100.00;95762.66;5009419;28;20116;-79
2022/07/15 02:01:54;;;;;;;13.70;8.93;;;;;;;16.91;100.00;95760.25;5014030;28;20065;-79
2022/07/15 02:04:21;;;;;;;12.93;8.23;;;;;;;16.83;100.00;95750.34;5011474;28;20315;-79
2022/07/15 02:06:47;;;;;;;16.23;8.40;;;;;;;17.01;100.00;95736.09;5025651;28;20044;-79
2022/07/15 02:09:12;;;;;;;14.48;8.43;;;;;;;17.00;100.00;95744.38;5009743;28;20079;-80
2022/07/15 02:11:38;;;;;;;14.55;8.88;;;;;;;17.21;100.00;95749.94;5012540;28;20384;-79
2022/07/15 02:14:04;;;;;;;15.43;8.48;;;;;;;17.10;100.00;95755.50;5011489;28;20048;-79
2022/07/15 02:16:30;;;;;;;13.18;8.45;;;;;;;17.21;100.00;95749.94;5015469;28;20057;-79
2022/07/15 02:18:56;;;;;;;17.73;9.18;;;;;;;17.20;100.00;95751.81;5010469;28;20046;-79
2022/07/15 02:21:21;;;;;;;15.60;8.23;;;;;;;16.98;100.00;95747.31;5009138;28;20042;-79
2022/07/15 02:23:47;;;;;;;14.38;10.18;;;;;;;16.98;100.00;95752.63;5014070;28;20044;-78
2022/07/15 02:26:13;;;;;;;19.08;9.15;;;;;;;16.98;100.00;95760.59;5029712;28;20050;-79
2022/07/15 02:28:38;;;;;;;14.10;8.90;;;;;;;17.10;100.00;95750.19;5008403;28;20038;-79
2022/07/15 02:31:05;;;;;;;16.23;9.13;;;;;;;17.22;100.00;95754.94;5004311;28;20042;-80
2022/07/15 02:33:31;;;;;;;15.70;8.52;;;;;;;16.96;100.00;95752.16;5015466;28;20042;-80
2022/07/15 02:35:56;;;;;;;12.85;7.07;;;;;;;16.99;100.00;95751.53;5014916;28;20129;-79
2022/07/15 02:38:22;;;;;;;13.80;5.68;;;;;;;16.92;100.00;95743.22;5013869;28;20061;-79
2022/07/15 02:40:48;;;;;;;12.80;6.22;;;;;;;16.85;100.00;95748.16;5023697;28;20493;-79
2022/07/15 02:43:14;;;;;;;8.80;5.65;;;;;;;16.78;100.00;95749.38;5014439;28;20881;-79
2022/07/15 02:45:39;;;;;;;8.88;5.97;;;;;;;16.74;100.00;95764.34;5029357;28;20096;-79
2022/07/15 02:48:06;;;;;;;15.40;6.20;;;;;;;16.73;100.00;95778.72;5030456;28;20045;-79
2022/07/15 02:50:32;;;;;;;9.85;6.05;;;;;;;16.67;100.00;95785.22;5013651;28;20034;-79
2022/07/15 02:52:58;;;;;;;12.60;6.47;;;;;;;16.53;100.00;95779.19;5009605;28;20447;-80
2022/07/15 02:55:23;;;;;;;12.23;6.15;;;;;;;16.59;100.00;95777.97;5014333;28;20038;-79
2022/07/15 02:57:49;;;;;;;12.45;6.32;;;;;;;16.48;100.00;95781.94;5026518;28;20038;-79
2022/07/15 03:00:17;;;;;;;11.02;6.78;;;;;;;16.32;100.00;95774.34;5026289;28;20672;-79
2022/07/15 03:02:43;;;;;;;12.43;5.95;;;;;;;16.18;100.00;95777.03;5029386;28;20451;-78
2022/07/15 03:05:11;;;;;;;11.15;5.78;;;;;;;16.23;100.00;95784.09;5013269;28;20184;-79
2022/07/15 03:07:37;;;;;;;12.32;5.45;;;;;;;16.27;100.00;95793.03;5013237;28;20041;-79
2022/07/15 03:10:04;;;;;;;12.48;4.88;;;;;;;16.24;100.00;95796.28;5012765;28;20049;-79
2022/07/15 03:12:30;;;;;;;13.40;5.75;;;;;;;16.29;100.00;95796.16;5013553;28;20048;-80
2022/07/15 03:14:55;;;;;;;9.70;5.47;;;;;;;16.07;100.00;95795.00;5012992;28;20120;-78
2022/07/15 03:17:21;;;;;;;9.15;5.35;;;;;;;15.96;100.00;95793.69;5025207;28;20046;-79
2022/07/15 03:19:46;;;;;;;10.05;5.32;;;;;;;15.91;100.00;95796.41;5011535;28;20060;-79
2022/07/15 03:22:12;;;;;;;13.00;5.68;;;;;;;16.00;100.00;95799.94;5009689;28;20053;-78
2022/07/15 03:24:37;;;;;;;12.70;5.35;;;;;;;15.79;100.00;95804.06;5027058;28;20041;-78
2022/07/15 03:27:03;;;;;;;9.77;4.75;;;;;;;15.83;100.00;95797.09;5026484;28;20045;-78
2022/07/15 03:29:29;;;;;;;12.35;4.80;;;;;;;15.77;100.00;95807.81;5007327;28;20060;-78
2022/07/15 03:31:55;;;;;;;9.18;4.43;;;;;;;15.74;100.00;95803.06;5008944;28;20506;-77
2022/07/15 03:34:21;;;;;;;7.85;4.60;;;;;;;15.75;100.00;95804.66;5009497;28;20050;-78
2022/07/15 03:36:47;;;;;;;9.93;4.88;;;;;;;15.67;100.00;95802.66;5022599;28;20064;-78
2022/07/15 03:39:12;;;;;;;10.13;5.10;;;;;;;15.54;100.00;95803.47;5009896;28;20041;-77
2022/07/15 03:41:38;;;;;;;11.30;5.07;;;;;;;15.57;100.00;95813.47;5012427;28;20042;-79
2022/07/15 03:44:04;;;;;;;11.90;5.95;;;;;;;15.44;100.00;95808.94;5012612;28;20046;-78
2022/07/15 03:46:33;;;;;;;10.00;5.20;;;;;;;15.49;100.00;95812.31;5022226;28;20046;-78
2022/07/15 03:49:00;;;;;;;8.63;5.05;;;;;;;15.40;100.00;95804.22;5013336;28;20042;-80
2022/07/15 03:51:30;;;;;;;9.10;5.53;;;;;;;15.38;100.00;95810.91;5013498;28;20050;-79
2022/07/15 03:54:01;;;;;;;15.85;5.15;;;;;;;15.38;100.00;95816.22;5028929;28;20118;-78
2022/07/15 03:56:28;;;;;;;12.23;5.15;;;;;;;15.11;100.00;95811.63;5024843;28;20077;-78
2022/07/15 03:58:53;;;;;;;9.23;5.22;;;;;;;14.99;100.00;95810.22;5012639;28;20063;-78
2022/07/15 04:01:20;;;;;;;10.38;5.57;;;;;;;15.11;100.00;95811.63;5008592;28;20052;-78
2022/07/15 04:03:48;;;;;;;11.20;5.55;;;;;;;15.30;100.00;95807.06;5012645;28;20053;-78
2022/07/15 04:06:14;;;;;;;7.35;5.28;;;;;;;15.36;100.00;95807.78;5011811;28;20064;-78
2022/07/15 04:08:40;;;;;;;10.18;5.00;;;;;;;15.22;100.00;95802.44;5010750;28;20605;-78
2022/07/15 04:11:06;;;;;;;8.07;5.18;;;;;;;15.10;100.00;95810.06;5011783;28;20288;-78
2022/07/15 04:13:31;;;;;;;11.35;5.10;;;;;;;15.22;100.00;95807.72;5013492;28;20041;-78
2022/07/15 04:15:57;;;;;;;8.60;5.28;;;;;;;15.19;100.00;95813.63;5011721;28;20144;-78
2022/07/15 04:18:23;;;;;;;13.77;5.13;;;;;;;15.27;100.00;95805.00;5006221;28;20050;-78
2022/07/15 04:20:48;;;;;;;9.45;4.95;;;;;;;15.32;100.00;95807.56;5006114;28;20088;-79
2022/07/15 04:23:14;;;;;;;9.63;5.10;;;;;;;15.48;100.00;95810.72;5012330;28;20049;-78
2022/07/15 04:25:40;;;;;;;11.13;5.20;;;;;;;15.53;100.00;95812.47;5004337;28;20042;-78
2022/07/15 04:28:05;;;;;;;10.55;5.13;;;;;;;15.61;100.00;95819.78;5012045;28;20041;-78
2022/07/15 04:30:31;;;;;;;10.82;5.15;;;;;;;15.52;100.00;95816.25;5010988;28;20038;-79
2022/07/15 04:32:56;;;;;;;12.25;5.68;;;;;;;15.51;100.00;95825.25;5022329;28;20475;-79
2022/07/15 04:35:22;;;;;;;15.43;5.25;;;;;;;15.48;100.00;95828.50;5011656;28;20088;-79
2022/07/15 04:37:47;;;;;;;9.73;5.25;;;;;;;15.48;100.00;95820.56;5019879;28;20034;-79
2022/07/15 04:40:13;;;;;;;8.13;5.10;;;;;;;15.55;100.00;95832.34;5008084;28;20049;-79
2022/07/15 04:42:39;;;;;;;11.57;5.47;;;;;;;15.60;100.00;95826.16;5000193;28;20042;-79
2022/07/15 04:45:05;;;;;;;11.65;5.45;;;;;;;15.51;100.00;95814.66;5027189;28;20046;-80
2022/07/15 04:47:31;;;;;;;10.68;5.82;;;;;;;15.49;100.00;95811.53;5032023;28;20049;-79
2022/07/15 04:52:45;;;;;;;11.18;5.10;;;;;;;15.58;100.00;95820.38;5011962;28;20041;-81
2022/07/15 04:55:11;;;;;;;7.30;5.30;;;;;;;15.44;100.00;95814.25;5023861;28;20042;-79
2022/07/15 04:57:36;;;;;;;10.93;5.90;;;;;;;15.40;100.00;95820.16;5006752;28;20053;-80
2022/07/15 05:00:04;;;;;;;13.25;5.32;;;;;;;15.37;100.00;95815.44;5011129;28;20571;-80
2022/07/15 05:02:30;;;;;;;13.40;5.20;;;;;;;15.42;100.00;95817.97;5012701;28;20066;-82
2022/07/15 05:04:55;;;;;;;11.55;5.85;;;;;;;15.36;100.00;95813.84;5019841;28;20124;-80
2022/07/15 05:07:21;;;;;;;12.52;6.15;;;;;;;15.38;100.00;95813.56;5010736;28;20042;-79
2022/07/15 05:09:46;;;;;;;12.85;5.80;;;;;;;15.50;100.00;95821.03;5011108;28;20392;-80
2022/07/15 05:12:12;;;;;;;10.63;5.13;;;;;;;15.49;100.00;95822.13;5011357;28;20046;-80
2022/07/15 05:14:40;;;;;;;9.13;5.10;;;;;;;15.64;100.00;95824.47;5026430;28;20050;-79
2022/07/15 05:17:07;;;;;;;9.88;4.70;;;;;;;15.68;100.00;95817.50;5010806;28;20074;-81
2022/07/15 05:19:33;;;;;;;10.90;4.93;;;;;;;15.77;100.00;95829.03;5008829;28;20045;-80
2022/07/15 05:21:59;;;;;;;7.93;5.20;;;;;;;15.76;100.00;95832.75;5026988;28;20038;-80
2022/07/15 05:24:24;;;;;;;9.27;4.63;;;;;;;15.79;100.00;95825.31;5007760;28;20037;-81
2022/07/15 05:26:50;;;;;;;10.27;4.68;;;;;;;15.79;100.00;95835.91;5023221;28;20526;-80
2022/07/15 05:29:15;;;;;;;8.60;5.00;;;;;;;15.70;100.00;95839.25;5010418;28;20042;-79
2022/07/15 05:31:41;;;;;;;9.65;5.45;;;;;;;15.75;100.00;95831.19;5010162;28;20046;-79
2022/07/15 05:34:06;;;;;;;7.15;4.65;;;;;;;15.74;100.00;95840.22;5010277;28;20062;-80
2022/07/15 05:36:32;;;;;;;7.07;4.80;;;;;;;15.68;100.00;95841.38;5023764;28;20045;-81
2022/07/15 05:38:58;;;;;;;13.43;5.32;;;;;;;15.62;100.00;95842.56;5025761;28;20085;-79
2022/07/15 05:41:23;;;;;;;10.93;5.47;;;;;;;15.71;100.00;95846.09;5026195;28;20038;-79
2022/07/15 05:43:49;;;;;;;10.57;5.18;;;;;;;15.76;100.00;95854.00;5005194;28;20079;-81
2022/07/15 05:46:14;;;;;;;11.65;5.13;;;;;;;15.85;100.00;95861.31;5010657;28;20045;-83
2022/07/15 05:48:41;;;;;;;12.65;5.20;;;;;;;15.94;100.00;95864.84;5029929;28;20041;-79
2022/07/15 05:51:07;;;;;;;8.27;4.75;;;;;;;16.09;100.00;95856.56;5013616;28;20116;-80
2022/07/15 05:53:33;;;;;;;9.50;4.53;;;;;;;16.28;100.00;95874.28;5012584;28;20046;-81
2022/07/15 05:55:59;;;;;;;9.35;4.53;;;;;;;16.25;100.00;95874.88;5013885;28;20045;-78
2022/07/15 05:58:25;;;;;;;8.93;4.82;;;;;;;16.28;100.00;95871.63;5014717;28;20045;-80
2022/07/15 06:00:51;;;;;;;12.63;4.57;;;;;;;16.33;100.00;95870.72;5013667;28;20042;-79
2022/07/15 06:03:17;;;;;;;9.93;4.43;;;;;;;16.32;99.11;95861.97;5013534;28;20038;-80
2022/07/15 06:05:43;;;;;;;13.77;4.55;;;;;;;16.47;100.00;95870.72;5027700;28;20410;-79
2022/07/15 06:08:10;;;;;;;10.40;4.32;;;;;;;16.40;100.00;95871.88;5014060;28;20045;-81
2022/07/15 06:10:36;;;;;;;11.93;4.80;;;;;;;16.27;100.00;95873.47;5016282;28;20038;-80
2022/07/15 06:13:01;;;;;;;9.15;4.78;;;;;;;16.32;100.00;95880.56;5025457;28;20050;-79
2022/07/15 06:15:27;;;;;;;10.57;4.57;;;;;;;16.23;100.00;95877.81;5008682;28;20077;-80
2022/07/15 06:17:53;;;;;;;11.30;4.63;;;;;;;16.20;100.00;95877.63;5013159;28;20523;-79
2022/07/15 06:20:19;;;;;;;9.05;4.32;;;;;;;16.25;98.60;95880.19;5010789;28;20037;-79
2022/07/15 06:22:45;;;;;;;10.35;4.68;;;;;;;16.34;100.00;95886.34;5012174;28;20029;-79
2022/07/15 06:25:11;;;;;;;9.30;4.20;;;;;;;16.38;97.72;95882.03;5030872;28;20046;-79
2022/07/15 06:27:37;;;;;;;10.48;4.60;;;;;;;16.39;100.00;95883.59;5011232;28;20191;-79
2022/07/15 06:30:04;;;;;;;10.02;4.60;;;;;;;16.41;96.59;95873.47;5013245;28;20050;-78
2022/07/15 06:32:29;;;;;;;11.27;4.88;;;;;;;16.39;94.49;95880.94;5012799;28;20521;-80
2022/07/15 06:34:55;;;;;;;8.05;4.47;;;;;;;16.42;93.24;95877.69;5028241;28;20037;-80
2022/07/15 06:37:21;;;;;;;11.82;4.10;;;;;;;16.70;92.62;95880.28;5011505;28;20048;-80
2022/07/15 06:39:47;;;;;;;14.80;4.38;;;;;;;16.75;90.35;95872.22;5012317;28;20668;-79
2022/07/15 06:42:12;;;;;;;13.15;3.97;;;;;;;16.82;89.10;95876.31;5008236;28;20488;-81
2022/07/15 06:44:38;;;;;;;13.98;4.18;;;;;;;16.86;89.34;95882.63;5004466;28;20045;-78
2022/07/15 06:47:06;;;;;;;10.52;4.22;;;;;;;16.94;92.22;95885.38;4994073;28;20050;-77
2022/07/15 06:49:34;;;;;;;6.15;3.70;;;;;;;16.91;88.51;95880.66;5002159;28;20049;-80
2022/07/15 06:52:00;;;;;;;9.38;3.90;;;;;;;16.83;94.51;95885.88;5013803;28;20045;-77
2022/07/15 06:54:25;;;;;;;10.13;3.83;;;;;;;16.85;91.24;95881.03;5022278;28;20038;-79
2022/07/15 06:56:51;;;;;;;9.02;3.60;;;;;;;16.85;82.69;95883.69;5011084;28;20693;-78
2022/07/15 06:59:16;;;;;;;8.48;3.60;;;;;;;17.06;87.35;95887.50;5027555;28;20046;-78
2022/07/15 07:01:42;;;;;;;8.02;3.50;;;;;;;17.11;86.05;95884.72;5012555;28;20038;-79
2022/07/15 07:04:07;;;;;;;7.22;3.80;;;;;;;17.14;87.02;95889.44;5012330;28;20504;-79
2022/07/15 07:06:33;;;;;;;7.82;3.20;;;;;;;17.18;84.53;95899.47;5013087;28;20042;-81
2022/07/15 07:08:59;;;;;;;7.72;3.20;;;;;;;17.23;84.49;95899.34;5012955;28;20532;-78
2022/07/15 07:11:25;;;;;;;6.65;2.95;;;;;;;17.39;78.63;95894.47;5012475;28;20053;-79
2022/07/15 07:13:51;;;;;;;6.20;3.22;;;;;;;17.35;85.82;95894.25;5011056;28;20045;-83
2022/07/15 07:16:17;;;;;;;6.68;3.53;;;;;;;17.37;85.78;95889.44;5001470;28;20052;-79
2022/07/15 07:18:47;;;;;;;13.23;3.97;;;;;;;17.37;75.39;95901.94;5011923;28;20038;-81
2022/07/15 07:21:13;;;;;;;15.50;3.78;;;;;;;17.41;78.47;95898.38;5013240;28;20049;-80
2022/07/15 07:23:39;;;;;;;6.03;3.08;;;;;;;17.40;82.33;95902.13;5012641;28;20042;-79
2022/07/15 07:26:06;;;;;;;7.30;2.95;;;;;;;17.39;80.07;95911.19;5013166;28;20042;-78
2022/07/15 07:28:33;;;;;;;6.90;2.92;;;;;;;17.38;79.37;95904.28;5023517;28;20419;-81
2022/07/15 07:31:00;;;;;;;12.05;3.60;;;;;;;17.44;80.74;95911.09;5013031;28;20038;-79
2022/07/15 07:33:25;;;;;;;7.40;3.10;;;;;;;17.62;78.92;95919.94;5012152;28;20042;-78
2022/07/15 07:35:52;;;;;;;6.25;3.10;;;;;;;17.49;81.71;95905.63;5009577;28;20423;-78
2022/07/15 07:38:19;;;;;;;12.15;3.20;;;;;;;17.76;81.51;95903.91;5007926;28;20038;-82
2022/07/15 07:40:47;;;;;;;9.45;3.38;;;;;;;17.81;84.97;95893.13;5009141;28;20037;-79
2022/07/15 07:43:18;;;;;;;5.45;3.00;;;;;;;17.89;81.62;95896.13;5012059;28;20447;-79
2022/07/15 07:45:44;;;;;;;8.52;3.13;;;;;;;17.73;77.81;95899.19;5007984;28;20514;-80
2022/07/15 07:48:09;;;;;;;9.20;3.20;;;;;;;17.73;71.60;95890.41;5008975;28;20042;-80
2022/07/15 07:50:35;;;;;;;9.05;2.80;;;;;;;17.92;77.30;95895.56;5010079;28;20041;-84
2022/07/15 07:53:01;;;;;;;5.28;2.90;;;;;;;17.92;73.28;95895.56;5006110;28;20046;-80
2022/07/15 07:55:26;;;;;;;11.82;3.60;;;;;;;17.99;79.98;95890.56;5009998;28;20046;-80
2022/07/15 07:57:55;;;;;;;8.60;2.80;;;;;;;17.91;75.04;95893.97;5011317;28;20419;-81
2022/07/15 08:00:22;;;;;;;14.30;3.25;;;;;;;17.89;79.97;95880.16;5008448;28;20567;-79
2022/07/15 08:02:48;;;;;;;8.27;4.07;;;;;;;18.04;72.04;95882.44;5020574;28;20084;-81
2022/07/15 08:05:15;;;;;;;15.15;3.47;;;;;;;18.14;73.78;95882.16;5010831;28;20842;-81
2022/07/15 08:07:41;;;;;;;9.82;3.15;;;;;;;18.15;70.41;95889.06;5010415;28;20042;-80
2022/07/15 08:10:09;;;;;;;9.88;3.67;;;;;;;18.18;72.81;95891.09;5005476;28;20451;-80
2022/07/15 08:12:37;;;;;;;7.20;3.30;;;;;;;18.25;72.97;95882.66;5001852;28;20116;-80
2022/07/15 08:15:04;;;;;;;6.18;3.17;;;;;;;18.12;70.61;95879.03;5011937;28;20042;-81
2022/07/15 08:17:30;;;;;;;7.47;3.20;;;;;;;18.03;73.49;95880.88;5012924;28;20049;-81
2022/07/15 08:19:56;;;;;;;6.20;3.08;;;;;;;18.34;73.65;95875.47;5009602;28;20100;-80
2022/07/15 08:22:21;;;;;;;10.05;3.15;;;;;;;18.15;72.35;95875.72;5011642;28;20042;-79
2022/07/15 08:24:49;;;;;;;8.75;3.17;;;;;;;18.10;75.72;95875.91;5010739;28;20037;-79
2022/07/15 08:27:15;;;;;;;7.82;3.28;;;;;;;18.21;70.62;95875.59;5007412;28;20515;-81
2022/07/15 08:29:41;;;;;;;6.85;2.88;;;;;;;18.16;70.37;95869.31;5008497;28;20053;-81
2022/07/15 08:32:06;;;;;;;6.70;2.78;;;;;;;18.30;65.72;95871.06;4999858;28;20091;-82
2022/07/15 08:34:32;;;;;;;5.40;3.00;;;;;;;18.43;65.92;95867.50;5010487;28;20038;-82
2022/07/15 08:36:57;;;;;;;7.05;3.10;;;;;;;18.25;70.39;95871.22;5009493;28;20037;-81
2022/07/15 08:39:23;;;;;;;8.65;3.00;;;;;;;18.46;67.65;95872.22;5009531;28;20038;-81
2022/07/15 08:41:51;;;;;;;6.03;2.78;;;;;;;18.47;67.41;95860.44;5008531;28;20045;-82
2022/07/15 08:44:16;;;;;;;8.75;3.03;;;;;;;18.58;70.53;95862.84;5009736;28;20619;-81
2022/07/15 08:46:45;;;;;;;8.55;2.95;;;;;;;18.63;67.21;95862.66;5005581;28;20037;-81
2022/07/15 08:49:23;;;;;;;9.88;2.97;;;;;;;18.55;67.06;95863.44;5024410;28;20045;-82
2022/07/15 08:51:48;;;;;;;9.05;3.03;;;;;;;18.68;66.07;95867.84;5024877;28;20041;-82
2022/07/15 08:54:14;;;;;;;5.35;3.10;;;;;;;18.87;67.11;95860.34;5009725;28;20046;-83
2022/07/15 08:56:42;;;;;;;7.07;3.13;;;;;;;18.89;68.28;95864.59;5009358;28;20042;-81
2022/07/15 08:59:08;;;;;;;6.63;3.08;;;;;;;18.90;66.14;95852.84;5008877;28;20117;-80
2022/07/15 09:01:42;;;;;;;10.35;3.25;;;;;;;19.01;64.15;95860.19;5023775;28;20121;-81
2022/07/15 09:04:07;;;;;;;9.13;2.97;;;;;;;18.92;63.60;95858.63;5010023;28;20044;-83
2022/07/15 09:06:42;;;;;;;6.20;3.15;;;;;;;19.09;66.00;95850.63;5011618;28;20042;-81
2022/07/15 09:09:24;;;;;;;11.52;3.85;;;;;;;19.34;64.17;95866.94;5007781;28;20053;-82
2022/07/15 09:12:09;;;;;;;9.57;3.75;;;;;;;19.42;66.07;95860.78;5007201;28;20099;-81
2022/07/15 09:14:38;;;;;;;7.85;3.28;;;;;;;19.42;63.26;95860.78;5012391;28;20064;-84
2022/07/15 09:17:10;;;;;;;9.30;3.20;;;;;;;19.38;64.50;95859.84;5010282;28;20497;-81
2022/07/15 09:19:57;;;;;;;8.55;2.80;;;;;;;19.40;64.79;95860.31;5011027;28;20033;-83
2022/07/15 09:22:23;;;;;;;9.13;3.17;;;;;;;19.73;62.89;95857.09;5010609;28;20503;-83
2022/07/15 09:25:08;;;;;;;7.32;3.30;;;;;;;19.77;62.68;95852.69;5016050;28;20050;-81
2022/07/15 09:27:37;;;;;;;6.90;3.00;;;;;;;19.79;62.39;95860.41;5016145;28;20045;-81
2022/07/15 09:36:08;;;;;;;6.50;3.20;;;;;;;19.83;60.63;95859.44;5009062;28;20045;-81
2022/07/15 09:38:40;;;;;;;6.75;3.38;;;;;;;19.92;64.71;95853.28;5013370;28;20435;-83
2022/07/15 09:41:12;;;;;;;10.57;3.17;;;;;;;20.00;61.43;95860.47;5006480;28;20070;-83
2022/07/15 09:44:06;;;;;;;5.30;3.40;;;;;;;20.41;60.11;95859.00;5031364;28;20561;-81
2022/07/15 09:46:57;;;;;;;9.93;3.50;;;;;;;20.36;60.88;95859.19;5018794;28;20045;-83
2022/07/15 09:49:22;;;;;;;8.75;3.40;;;;;;;20.43;61.64;95856.78;5016366;28;20061;-82
2022/07/15 09:51:50;;;;;;;8.68;3.33;;;;;;;20.53;61.62;95856.41;5037388;28;20034;-83
2022/07/15 09:54:17;;;;;;;6.05;3.00;;;;;;;20.50;62.05;95861.59;5021884;28;20049;-82
2022/07/15 09:56:45;;;;;;;8.05;3.58;;;;;;;20.47;59.28;95856.91;5022629;28;20045;-82
2022/07/15 09:59:11;;;;;;;8.55;3.40;;;;;;;20.53;59.94;95856.41;5023592;28;20064;-83
2022/07/15 10:01:37;;;;;;;8.23;3.30;;;;;;;20.70;59.37;95855.53;5024316;28;20044;-84
2022/07/15 10:04:04;;;;;;;11.82;3.70;;;;;;;20.94;59.36;95849.50;5022995;28;20042;-81
2022/07/15 10:06:32;;;;;;;7.93;4.15;;;;;;;21.12;58.46;95846.69;5014778;28;20332;-81
2022/07/15 10:08:58;;;;;;;8.07;3.60;;;;;;;20.91;55.54;95844.03;5032189;28;20046;-80
2022/07/15 10:11:23;;;;;;;7.82;3.45;;;;;;;20.97;56.05;95849.97;5017553;28;20097;-82
2022/07/15 10:14:08;;;;;;;8.45;3.67;;;;;;;21.34;55.68;95845.53;5031979;28;20096;-84
2022/07/15 10:16:52;;;;;;;8.25;3.97;;;;;;;21.44;55.25;95849.69;5012351;28;20037;-80
2022/07/15 10:19:24;;;;;;;8.45;3.63;;;;;;;21.67;53.65;95831.34;5018258;28;20057;-78
2022/07/15 10:22:31;;;;;;;5.47;3.63;;;;;;;22.06;54.72;95841.75;5025791;28;20046;-80
2022/07/15 10:25:23;;;;;;;14.50;4.10;;;;;;;21.91;51.34;95835.97;5013537;28;20522;-79
2022/07/15 10:28:00;;;;;;;7.88;4.20;;;;;;;21.91;52.51;95841.31;5026937;28;20038;-80
2022/07/15 10:30:26;;;;;;;9.40;4.25;;;;;;;22.30;51.38;95841.75;5007503;28;20061;-79
2022/07/15 10:33:10;;;;;;;8.18;3.55;;;;;;;22.89;52.40;95834.28;5015806;28;20049;-79
2022/07/15 10:35:48;;;;;;;8.25;3.72;;;;;;;23.31;48.58;95833.13;5028341;28;20045;-78
2022/07/15 10:38:34;;;;;;;11.18;4.55;;;;;;;23.23;49.68;95826.78;5009896;28;20070;-80
2022/07/15 10:41:09;;;;;;;9.15;3.70;;;;;;;23.56;46.87;95828.41;5016360;28;20499;-81
2022/07/15 10:43:51;;;;;;;10.93;4.05;;;;;;;24.07;47.58;95830.41;5013159;28;20037;-79
2022/07/15 10:46:21;;;;;;;6.57;3.95;;;;;;;24.15;45.81;95828.66;5012317;28;20061;-80
2022/07/15 10:49:10;;;;;;;8.20;4.38;;;;;;;23.50;45.53;95827.06;5014951;28;20046;-80
2022/07/15 10:51:36;;;;;;;8.82;3.70;;;;;;;24.46;43.98;95818.97;5013560;28;20064;-80
2022/07/15 10:54:33;;;;;;;8.15;4.07;;;;;;;24.84;43.58;95820.16;5016050;28;20042;-80
2022/07/15 10:57:00;;;;;;;8.90;4.30;;;;;;;24.60;43.18;95819.28;5015494;28;20042;-80
2022/07/15 10:59:26;;;;;;;9.27;4.22;;;;;;;24.50;43.46;95819.81;5015042;28;20117;-81
2022/07/15 11:02:01;;;;;;;10.52;4.47;;;;;;;25.17;42.54;95818.84;5026956;28;20069;-80
2022/07/15 11:04:29;;;;;;;7.15;3.80;;;;;;;25.59;42.23;95829.66;5008876;28;20042;-79
2022/07/15 11:07:07;;;;;;;9.57;4.00;;;;;;;25.96;39.79;95824.84;5026012;28;20045;-77
2022/07/15 11:09:55;;;;;;;8.90;3.63;;;;;;;26.39;38.35;95810.09;5010821;28;20062;-78
2022/07/15 11:12:28;;;;;;;6.15;3.97;;;;;;;26.28;38.71;95809.19;5010937;28;20051;-79
2022/07/15 11:14:59;;;;;;;9.48;4.05;;;;;;;26.49;37.63;95805.22;5008780;28;20038;-79
2022/07/15 11:17:34;;;;;;;7.40;4.55;;;;;;;26.83;39.39;95807.97;5010032;28;20041;-80
2022/07/15 11:20:08;;;;;;;8.88;3.97;;;;;;;25.41;40.47;95798.94;5022581;28;20046;-77
2022/07/15 11:22:35;;;;;;;8.27;3.80;;;;;;;26.97;39.00;95794.66;5024578;28;20173;-78
2022/07/15 11:25:03;;;;;;;8.57;3.65;;;;;;;27.13;37.10;95792.50;5012390;28;20096;-78
2022/07/15 11:27:29;;;;;;;10.63;3.90;;;;;;;26.79;37.48;95781.72;5013548;28;20037;-78
2022/07/15 11:30:01;;;;;;;7.38;3.92;;;;;;;26.78;37.16;95782.09;5016442;28;20355;-81
2022/07/15 11:32:28;;;;;;;11.35;4.00;;;;;;;27.61;36.90;95782.94;5013914;28;20092;-78
2022/07/15 11:34:57;;;;;;;7.05;3.95;;;;;;;28.09;36.12;95774.81;5026722;28;20038;-81
2022/07/15 11:37:29;;;;;;;10.65;3.63;;;;;;;28.10;33.67;95770.97;5010356;28;20125;-80